Time;durP1;ratioP1;P1;durP2;ratioP2;P2;SDS_P1;SDS_P2;PMS_P1;PMS_P2;Temp;Humidity;BMP_temperature;BMP_pressure;BME280_temperature;BME280_humidity;BME280_pressure;Samples;Min_cycle;Max_cycle;Signal;HPM_P1;HPM_P2
2022/08/14 00:01:56;;;;;;;;;;;22.40;99.90;;;;;;5134956;27;19976;-70
2022/08/14 00:04:22;;;;;;;;;;;22.40;99.90;;;;;;5134833;27;19983;-71
2022/08/14 00:06:48;;;;;;;;;;;22.30;99.90;;;;;;5135169;27;19975;-73
2022/08/14 00:09:13;;;;;;;;;;;22.30;99.90;;;;;;5134992;27;20437;-70
2022/08/14 00:11:39;;;;;;;;;;;22.30;99.90;;;;;;5135060;27;19935;-71
2022/08/14 00:14:05;;;;;;;;;;;22.30;99.90;;;;;;5134763;27;19924;-70
2022/08/14 00:16:31;;;;;;;;;;;22.40;99.90;;;;;;5135259;27;19930;-70
2022/08/14 00:18:57;;;;;;;;;;;22.00;99.90;;;;;;5134703;27;19927;-71
2022/08/14 00:21:22;;;;;;;;;;;22.00;99.90;;;;;;5151333;27;19923;-70
2022/08/14 00:23:48;;;;;;;;;;;21.90;99.90;;;;;;5134700;27;19923;-70
2022/08/14 00:26:14;;;;;;;;;;;22.00;99.90;;;;;;5134649;27;19924;-73
2022/08/14 00:28:39;;;;;;;;;;;21.90;99.90;;;;;;5134755;27;19927;-70
2022/08/14 00:31:05;;;;;;;;;;;22.00;99.90;;;;;;5134563;27;20449;-73
2022/08/14 00:33:31;;;;;;;;;;;22.00;99.90;;;;;;5134460;27;19924;-71
2022/08/14 00:35:57;;;;;;;;;;;22.00;99.90;;;;;;5134480;27;20298;-70
2022/08/14 00:38:23;;;;;;;;;;;22.00;99.90;;;;;;5150837;27;19927;-70
2022/08/14 00:40:49;;;;;;;;;;;22.00;99.90;;;;;;5134447;27;20014;-73
2022/08/14 00:43:14;;;;;;;;;;;21.90;99.90;;;;;;5134686;27;20484;-71
2022/08/14 00:45:40;;;;;;;;;;;22.00;99.90;;;;;;5134295;27;19934;-70
2022/08/14 00:48:06;;;;;;;;;;;21.90;99.90;;;;;;5134312;27;19968;-73
2022/08/14 00:50:31;;;;;;;;;;;21.90;99.90;;;;;;5150219;27;19946;-71
2022/08/14 00:52:58;;;;;;;;;;;21.90;99.90;;;;;;5116465;27;19930;-71
2022/08/14 00:55:26;;;;;;;;;;;21.90;99.90;;;;;;5134336;28;20336;-71
2022/08/14 01:00:53;;;;;;;;;;;21.90;99.90;;;;;;5070785;28;19925;-70
2022/08/14 01:03:19;;;;;;;;;;;21.90;99.90;;;;;;5070915;28;20307;-71
2022/08/14 01:05:48;;;;;;;;;;;21.90;99.90;;;;;;5070863;28;20189;-70
2022/08/14 01:08:22;;;;;;;;;;;21.90;99.90;;;;;;5070798;28;19978;-72
2022/08/14 01:10:51;;;;;;;;;;;21.90;99.90;;;;;;5070780;28;19931;-71
2022/08/14 01:13:21;;;;;;;;;;;21.90;99.90;;;;;;5070702;28;19925;-73
2022/08/14 01:15:49;;;;;;;;;;;21.80;99.90;;;;;;5070768;28;19924;-71
2022/08/14 01:21:02;;;;;;;;;;;21.70;99.90;;;;;;5054244;28;20017;-70
2022/08/14 01:23:29;;;;;;;;;;;21.70;99.90;;;;;;5070635;28;19936;-72
2022/08/14 01:25:55;;;;;;;;;;;21.70;99.90;;;;;;5070705;28;19924;-70
2022/08/14 01:28:21;;;;;;;;;;;21.60;99.90;;;;;;5054200;28;19924;-71
2022/08/14 01:30:48;;;;;;;;;;;21.60;99.90;;;;;;5070742;28;19925;-70
2022/08/14 01:33:15;;;;;;;;;;;21.60;99.90;;;;;;5054215;28;19925;-72
2022/08/14 01:35:43;;;;;;;;;;;21.50;99.90;;;;;;5108285;27;19933;-70
2022/08/14 01:38:13;;;;;;;;;;;21.50;99.90;;;;;;5119790;27;20018;-70
2022/08/14 01:40:39;;;;;;;;;;;21.90;99.90;;;;;;5137735;27;19940;-70
2022/08/14 01:43:13;;;;;;;;;;;21.50;99.90;;;;;;5138019;27;19923;-71
2022/08/14 01:45:39;;;;;;;;;;;21.50;99.90;;;;;;5137811;27;19924;-71
2022/08/14 01:48:05;;;;;;;;;;;21.40;99.90;;;;;;5119051;27;20006;-70
2022/08/14 01:50:31;;;;;;;;;;;21.40;99.90;;;;;;5137717;27;20124;-70
2022/08/14 01:52:56;;;;;;;;;;;21.30;99.90;;;;;;5119547;27;19975;-70
2022/08/14 01:55:23;;;;;;;;;;;21.40;99.90;;;;;;5119325;27;19930;-70
2022/08/14 01:57:49;;;;;;;;;;;21.40;99.90;;;;;;5137738;27;20303;-70
2022/08/14 02:00:15;;;;;;;;;;;21.40;99.90;;;;;;5137654;27;19923;-71
2022/08/14 02:02:41;;;;;;;;;;;21.40;99.90;;;;;;5137593;27;19924;-70
2022/08/14 02:05:10;;;;;;;;;;;21.40;99.90;;;;;;5119066;27;20405;-70
2022/08/14 02:07:36;;;;;;;;;;;21.40;99.90;;;;;;5119328;27;20019;-71
2022/08/14 02:10:03;;;;;;;;;;;21.40;99.90;;;;;;5119166;27;19927;-70
2022/08/14 02:12:29;;;;;;;;;;;21.40;99.90;;;;;;5137356;27;20274;-70
2022/08/14 02:14:55;;;;;;;;;;;21.30;99.90;;;;;;5137311;27;20027;-70
2022/08/14 02:17:22;;;;;;;;;;;21.30;99.90;;;;;;5119315;27;20366;-70
2022/08/14 02:19:48;;;;;;;;;;;21.30;99.90;;;;;;5119126;27;19923;-70
2022/08/14 02:22:15;;;;;;;;;;;21.30;99.90;;;;;;5153478;27;19923;-70
2022/08/14 02:24:40;;;;;;;;;;;21.30;99.90;;;;;;5136882;27;19934;-70
2022/08/14 02:27:06;;;;;;;;;;;21.30;99.90;;;;;;5137184;27;19924;-72
2022/08/14 02:29:32;;;;;;;;;;;21.30;99.90;;;;;;5137129;27;20377;-74
2022/08/14 02:31:59;;;;;;;;;;;21.30;99.90;;;;;;5137076;27;20370;-72
2022/08/14 02:34:31;;;;;;;;;;;21.30;99.90;;;;;;5118604;27;19927;-70
2022/08/14 02:36:58;;;;;;;;;;;21.30;99.90;;;;;;5137016;27;19924;-70
2022/08/14 02:39:24;;;;;;;;;;;21.30;99.90;;;;;;5136570;27;19923;-70
2022/08/14 02:41:51;;;;;;;;;;;21.30;99.90;;;;;;5118735;27;20039;-70
2022/08/14 02:44:21;;;;;;;;;;;21.30;99.90;;;;;;5136771;27;20403;-70
2022/08/14 02:46:48;;;;;;;;;;;21.30;99.90;;;;;;5151855;27;19957;-71
2022/08/14 02:49:13;;;;;;;;;;;21.30;99.90;;;;;;5136575;27;19930;-72
2022/08/14 02:51:40;;;;;;;;;;;21.20;99.90;;;;;;5136585;27;19927;-70
2022/08/14 02:54:06;;;;;;;;;;;21.20;99.90;;;;;;5136330;27;19930;-73
2022/08/14 02:56:34;;;;;;;;;;;21.20;99.90;;;;;;5136338;27;20287;-70
2022/08/14 02:59:00;;;;;;;;;;;21.20;99.90;;;;;;5136506;27;19975;-69
2022/08/14 03:01:27;;;;;;;;;;;21.20;99.90;;;;;;5136270;27;19924;-70
2022/08/14 03:03:54;;;;;;;;;;;21.20;99.90;;;;;;5136189;27;20444;-70
2022/08/14 03:06:21;;;;;;;;;;;21.20;99.90;;;;;;5117828;27;20507;-70
2022/08/14 03:08:47;;;;;;;;;;;21.10;99.90;;;;;;5136031;27;20391;-70
2022/08/14 03:11:12;;;;;;;;;;;21.00;99.90;;;;;;5136070;27;20014;-70
2022/08/14 03:13:39;;;;;;;;;;;21.10;99.90;;;;;;5136243;27;19970;-70
2022/08/14 03:16:06;;;;;;;;;;;21.10;99.90;;;;;;5136091;27;19932;-70
2022/08/14 03:18:31;;;;;;;;;;;21.00;99.90;;;;;;5136085;27;19969;-71
2022/08/14 03:20:58;;;;;;;;;;;21.00;99.90;;;;;;5117968;27;20297;-70
2022/08/14 03:23:24;;;;;;;;;;;21.00;99.90;;;;;;5135801;27;20014;-70
2022/08/14 03:25:50;;;;;;;;;;;21.00;99.90;;;;;;5117399;27;20474;-70
2022/08/14 03:28:15;;;;;;;;;;;21.00;99.90;;;;;;5135860;27;19923;-71
2022/08/14 03:30:41;;;;;;;;;;;21.00;99.90;;;;;;5135885;27;20297;-73
2022/08/14 03:33:10;;;;;;;;;;;21.00;99.90;;;;;;5135801;27;19923;-69
2022/08/14 03:35:37;;;;;;;;;;;21.00;99.90;;;;;;5135409;27;19930;-70
2022/08/14 03:38:09;;;;;;;;;;;21.00;99.90;;;;;;5116720;27;19923;-70
2022/08/14 03:40:37;;;;;;;;;;;21.00;99.90;;;;;;5117266;27;19963;-71
2022/08/14 03:43:04;;;;;;;;;;;21.00;99.90;;;;;;5135614;27;19946;-69
2022/08/14 03:45:31;;;;;;;;;;;21.00;99.90;;;;;;5135451;27;19927;-73
2022/08/14 03:47:58;;;;;;;;;;;20.90;99.90;;;;;;5117135;27;20293;-72
2022/08/14 03:50:23;;;;;;;;;;;20.90;99.90;;;;;;5135401;27;19931;-70
2022/08/14 03:52:49;;;;;;;;;;;20.80;99.90;;;;;;5135237;27;19923;-71
2022/08/14 03:55:14;;;;;;;;;;;20.70;99.90;;;;;;5117390;27;19928;-72
2022/08/14 03:57:40;;;;;;;;;;;20.70;99.90;;;;;;5135046;27;20299;-70
2022/08/14 04:00:09;;;;;;;;;;;20.60;99.90;;;;;;5117268;27;20378;-72
2022/08/14 04:02:36;;;;;;;;;;;20.60;99.90;;;;;;5135200;27;19986;-70
2022/08/14 04:05:01;;;;;;;;;;;20.50;99.90;;;;;;5116792;27;19972;-72
2022/08/14 04:07:27;;;;;;;;;;;20.50;99.90;;;;;;5134932;27;19923;-70
2022/08/14 04:09:52;;;;;;;;;;;20.50;99.90;;;;;;5134737;27;19930;-70
2022/08/14 04:12:18;;;;;;;;;;;20.50;99.90;;;;;;5116980;27;19932;-71
2022/08/14 04:14:44;;;;;;;;;;;20.50;99.90;;;;;;5116949;27;19923;-71
2022/08/14 04:17:10;;;;;;;;;;;20.50;99.90;;;;;;5116963;27;19985;-70
2022/08/14 04:19:36;;;;;;;;;;;20.50;99.90;;;;;;5134797;27;20351;-70
2022/08/14 04:22:02;;;;;;;;;;;20.50;99.90;;;;;;5134771;27;19975;-71
2022/08/14 04:24:28;;;;;;;;;;;20.40;99.90;;;;;;5134477;27;19924;-70
2022/08/14 04:26:54;;;;;;;;;;;20.40;99.90;;;;;;5134923;27;19930;-70
2022/08/14 04:29:19;;;;;;;;;;;20.40;99.90;;;;;;5151152;27;20350;-70
2022/08/14 04:31:45;;;;;;;;;;;20.40;99.90;;;;;;5134681;27;19958;-70
2022/08/14 04:34:11;;;;;;;;;;;20.40;99.90;;;;;;5150311;27;19923;-70
2022/08/14 04:43:34;;;;;;;;;;;20.40;99.90;;;;;;5134348;27;19924;-70
2022/08/14 04:44:51;;;;;;;;;;;20.40;99.90;;;;;;5134325;27;19930;-70
2022/08/14 04:50:02;;;;;;;;;;;20.40;99.90;;;;;;5134254;27;20438;-71
2022/08/14 04:52:28;;;;;;;;;;;20.40;99.90;;;;;;5134492;27;19950;-72
2022/08/14 04:54:54;;;;;;;;;;;20.40;99.90;;;;;;5134332;27;20017;-70
2022/08/14 04:57:20;;;;;;;;;;;20.40;99.90;;;;;;5134337;28;19935;-70
2022/08/14 04:59:45;;;;;;;;;;;20.40;99.90;;;;;;5134305;28;19931;-70
2022/08/14 05:02:12;;;;;;;;;;;20.40;99.90;;;;;;5134221;28;19970;-70
2022/08/14 05:04:38;;;;;;;;;;;20.40;99.90;;;;;;5134372;28;19931;-72
2022/08/14 05:07:04;;;;;;;;;;;20.30;99.90;;;;;;5116101;28;20401;-69
2022/08/14 05:09:29;;;;;;;;;;;20.40;99.90;;;;;;5135145;27;19927;-71
2022/08/14 05:11:55;;;;;;;;;;;20.30;99.90;;;;;;5138531;27;19949;-70
2022/08/14 05:14:21;;;;;;;;;;;20.30;99.90;;;;;;5138403;27;20430;-70
2022/08/14 05:16:47;;;;;;;;;;;20.30;99.90;;;;;;5120261;27;19927;-70
2022/08/14 05:19:13;;;;;;;;;;;20.40;99.90;;;;;;5138207;27;19923;-70
2022/08/14 05:21:42;;;;;;;;;;;20.40;99.90;;;;;;5138392;27;19967;-71
2022/08/14 05:24:10;;;;;;;;;;;20.40;99.90;;;;;;5138207;27;19982;-70
2022/08/14 05:26:40;;;;;;;;;;;20.50;99.90;;;;;;5138303;27;19923;-74
2022/08/14 05:29:09;;;;;;;;;;;20.40;99.90;;;;;;5138139;27;19929;-73
2022/08/14 05:31:38;;;;;;;;;;;20.50;99.90;;;;;;5137981;27;20307;-70
2022/08/14 05:34:04;;;;;;;;;;;20.50;99.90;;;;;;5120128;27;19924;-72
2022/08/14 05:36:32;;;;;;;;;;;20.60;99.90;;;;;;5137958;27;19927;-72
2022/08/14 05:38:58;;;;;;;;;;;20.60;99.90;;;;;;5137911;27;19923;-70
2022/08/14 05:41:23;;;;;;;;;;;20.60;99.90;;;;;;5137906;27;19945;-71
2022/08/14 05:43:49;;;;;;;;;;;20.70;99.90;;;;;;5119442;27;19963;-70
2022/08/14 05:46:21;;;;;;;;;;;20.70;99.90;;;;;;5137604;27;19991;-70
2022/08/14 05:48:48;;;;;;;;;;;20.70;99.90;;;;;;5137930;27;20400;-70
2022/08/14 05:51:13;;;;;;;;;;;20.70;99.90;;;;;;5137872;27;20302;-70
2022/08/14 05:53:39;;;;;;;;;;;20.80;99.90;;;;;;5137676;27;19923;-71
2022/08/14 05:56:04;;;;;;;;;;;20.80;99.90;;;;;;5119169;27;19977;-74
2022/08/14 05:58:30;;;;;;;;;;;20.90;99.90;;;;;;5119446;27;19928;-71
2022/08/14 06:00:56;;;;;;;;;;;20.90;99.90;;;;;;5153496;27;19923;-70
2022/08/14 06:03:22;;;;;;;;;;;20.90;99.90;;;;;;5119339;27;19928;-72
2022/08/14 06:05:49;;;;;;;;;;;21.00;99.90;;;;;;5118761;27;20006;-71
2022/08/14 06:08:33;;;;;;;;;;;21.00;99.90;;;;;;5118728;27;20394;-70
2022/08/14 06:11:02;;;;;;;;;;;21.10;99.90;;;;;;5137411;27;19923;-73
2022/08/14 06:13:45;;;;;;;;;;;21.10;99.90;;;;;;5118905;27;20010;-71
2022/08/14 06:16:14;;;;;;;;;;;21.20;99.90;;;;;;5137380;27;19975;-70
2022/08/14 06:18:40;;;;;;;;;;;21.20;99.90;;;;;;5137352;27;20372;-71
2022/08/14 06:21:05;;;;;;;;;;;21.30;99.90;;;;;;5137079;27;19924;-72
2022/08/14 06:23:31;;;;;;;;;;;21.30;99.90;;;;;;5137076;27;20351;-71
2022/08/14 06:25:57;;;;;;;;;;;21.40;99.90;;;;;;5136899;27;19924;-70
2022/08/14 06:28:24;;;;;;;;;;;21.40;99.90;;;;;;5118711;27;19924;-70
2022/08/14 06:30:51;;;;;;;;;;;21.50;99.90;;;;;;5137100;27;19923;-70
2022/08/14 06:33:17;;;;;;;;;;;21.50;99.90;;;;;;5153390;27;19930;-70
2022/08/14 06:35:43;;;;;;;;;;;21.10;99.90;;;;;;5136894;27;19924;-70
2022/08/14 06:38:13;;;;;;;;;;;21.60;99.90;;;;;;5136783;27;20035;-72
2022/08/14 06:40:39;;;;;;;;;;;21.70;99.90;;;;;;5118559;27;19930;-70
2022/08/14 06:43:06;;;;;;;;;;;21.80;99.90;;;;;;5135506;27;20017;-70
2022/08/14 06:45:32;;;;;;;;;;;21.80;99.90;;;;;;5136383;27;19923;-70
2022/08/14 06:47:58;;;;;;;;;;;21.90;99.90;;;;;;5136519;27;20357;-71
2022/08/14 06:50:26;;;;;;;;;;;22.00;99.90;;;;;;5136707;27;20337;-71
2022/08/14 06:52:52;;;;;;;;;;;22.00;99.90;;;;;;5136526;27;19924;-70
2022/08/14 06:55:17;;;;;;;;;;;22.10;99.90;;;;;;5136470;27;19976;-70
2022/08/14 06:57:44;;;;;;;;;;;22.20;99.90;;;;;;5136143;27;20370;-70
2022/08/14 07:00:12;;;;;;;;;;;22.20;99.90;;;;;;5136073;27;20381;-70
2022/08/14 07:05:45;;;;;;;;;;;22.30;99.90;;;;;;5136149;27;19930;-70
2022/08/14 07:08:15;;;;;;;;;;;22.50;99.90;;;;;;5136062;27;20027;-70
2022/08/14 07:10:42;;;;;;;;;;;22.60;99.90;;;;;;5136062;27;20335;-70
2022/08/14 07:13:09;;;;;;;;;;;22.60;99.90;;;;;;5135982;27;19923;-71
2022/08/14 07:15:34;;;;;;;;;;;22.70;99.90;;;;;;5136062;27;19930;-70
2022/08/14 07:18:00;;;;;;;;;;;22.80;99.90;;;;;;5135821;27;19927;-70
2022/08/14 07:20:27;;;;;;;;;;;22.80;99.90;;;;;;5135962;27;19923;-70
2022/08/14 07:22:57;;;;;;;;;;;22.90;99.90;;;;;;5135761;27;20301;-70
2022/08/14 07:25:26;;;;;;;;;;;23.00;99.90;;;;;;5135826;27;19931;-70
2022/08/14 07:27:52;;;;;;;;;;;23.00;99.90;;;;;;5135966;27;19949;-70
2022/08/14 07:30:17;;;;;;;;;;;23.10;99.90;;;;;;5117768;27;20370;-70
2022/08/14 07:32:43;;;;;;;;;;;23.20;99.90;;;;;;5134928;27;20102;-73
2022/08/14 07:35:08;;;;;;;;;;;23.20;99.90;;;;;;5151695;27;19923;-70
2022/08/14 07:37:34;;;;;;;;;;;23.30;99.90;;;;;;5134230;27;19939;-71
2022/08/14 07:40:00;;;;;;;;;;;23.30;99.90;;;;;;5135623;27;19927;-71
2022/08/14 07:42:26;;;;;;;;;;;23.40;99.90;;;;;;5135584;27;20245;-70
2022/08/14 07:44:51;;;;;;;;;;;23.40;99.90;;;;;;5117004;27;20304;-72
2022/08/14 07:47:17;;;;;;;;;;;23.40;99.90;;;;;;5117345;27;19924;-70
2022/08/14 07:49:50;;;;;;;;;;;23.50;99.90;;;;;;5135314;27;19923;-73
2022/08/14 07:52:15;;;;;;;;;;;23.60;99.90;;;;;;5135090;27;19924;-70
2022/08/14 07:54:41;;;;;;;;;;;23.60;99.90;;;;;;5135239;27;19991;-73
2022/08/14 07:57:07;;;;;;;;;;;23.70;99.90;;;;;;5135338;27;19923;-71
2022/08/14 07:59:32;;;;;;;;;;;23.70;99.90;;;;;;5135191;27;19930;-71
2022/08/14 08:01:58;;;;;;;;;;;23.80;99.90;;;;;;5151546;27;19931;-70
2022/08/14 08:04:25;;;;;;;;;;;23.90;99.90;;;;;;5134910;27;19924;-71
2022/08/14 08:06:51;;;;;;;;;;;23.90;99.90;;;;;;5134838;27;19928;-71
2022/08/14 08:09:18;;;;;;;;;;;23.90;99.90;;;;;;5134644;27;19923;-71
2022/08/14 08:11:45;;;;;;;;;;;24.10;99.90;;;;;;5135082;27;19968;-71
2022/08/14 08:14:10;;;;;;;;;;;24.10;99.90;;;;;;5116286;27;19927;-71
2022/08/14 08:16:37;;;;;;;;;;;24.20;99.90;;;;;;5134742;27;19930;-71
2022/08/14 08:19:02;;;;;;;;;;;24.20;99.90;;;;;;5134814;27;19978;-71
2022/08/14 08:21:28;;;;;;;;;;;24.30;99.90;;;;;;5134757;27;19971;-70
2022/08/14 08:23:54;;;;;;;;;;;24.30;99.90;;;;;;5115812;27;20297;-72
2022/08/14 08:26:19;;;;;;;;;;;24.40;99.90;;;;;;5134784;27;20373;-71
2022/08/14 08:28:54;;;;;;;;;;;24.50;99.90;;;;;;5134701;27;19992;-70
2022/08/14 08:31:20;;;;;;;;;;;24.50;99.90;;;;;;5134711;27;19924;-70
2022/08/14 08:33:50;;;;;;;;;;;24.60;99.90;;;;;;5134584;27;20285;-72
2022/08/14 08:36:15;;;;;;;;;;;24.70;99.90;;;;;;5115285;27;20366;-73
2022/08/14 08:38:59;;;;;;;;;;;24.70;99.90;;;;;;5134130;27;19963;-71
2022/08/14 08:41:25;;;;;;;;;;;24.80;99.90;;;;;;5116376;27;19923;-70
2022/08/14 08:43:50;;;;;;;;;;;24.90;99.90;;;;;;5133565;27;20351;-72
2022/08/14 08:46:20;;;;;;;;;;;24.90;99.90;;;;;;5150330;27;19952;-74
2022/08/14 08:48:47;;;;;;;;;;;24.90;99.90;;;;;;5134298;27;19953;-73
2022/08/14 08:51:23;;;;;;;;;;;25.00;99.90;;;;;;5134060;27;19977;-74
2022/08/14 08:54:02;;;;;;;;;;;25.00;99.90;;;;;;5134367;27;19946;-71
2022/08/14 08:56:42;;;;;;;;;;;25.10;99.90;;;;;;5116286;28;19931;-72
2022/08/14 08:59:21;;;;;;;;;;;25.20;99.90;;;;;;5116009;28;19923;-71
2022/08/14 09:01:48;;;;;;;;;;;25.20;99.90;;;;;;5114767;28;20297;-73
2022/08/14 09:04:13;;;;;;;;;;;25.20;99.90;;;;;;5116162;28;19974;-71
2022/08/14 09:06:43;;;;;;;;;;;25.30;99.90;;;;;;5134235;28;19966;-73
2022/08/14 09:09:25;;;;;;;;;;;25.40;99.90;;;;;;5115831;28;20297;-71
2022/08/14 09:11:53;;;;;;;;;;;25.40;99.90;;;;;;5134031;28;20405;-71
2022/08/14 09:14:23;;;;;;;;;;;25.50;99.90;;;;;;5133766;28;19932;-71
2022/08/14 09:16:49;;;;;;;;;;;25.50;99.90;;;;;;5134042;28;20018;-71
2022/08/14 09:19:15;;;;;;;;;;;25.60;99.90;;;;;;5116051;28;19975;-71
2022/08/14 09:21:40;;;;;;;;;;;25.70;99.90;;;;;;5134062;28;19931;-71
2022/08/14 09:24:07;;;;;;;;;;;25.70;99.90;;;;;;5150223;27;19923;-72
2022/08/14 09:26:33;;;;;;;;;;;25.80;99.90;;;;;;5149951;27;19930;-71
2022/08/14 09:28:59;;;;;;;;;;;25.80;99.90;;;;;;5133877;28;19978;-71
2022/08/14 09:31:26;;;;;;;;;;;25.90;99.90;;;;;;5116035;28;19923;-71
2022/08/14 09:33:59;;;;;;;;;;;26.00;99.90;;;;;;5115946;28;20386;-71
2022/08/14 09:36:36;;;;;;;;;;;26.00;99.90;;;;;;5133560;28;19923;-71
2022/08/14 09:39:08;;;;;;;;;;;26.00;99.90;;;;;;5133725;28;19924;-71
2022/08/14 09:41:53;;;;;;;;;;;26.20;99.90;;;;;;5133643;28;20382;-73
2022/08/14 09:44:37;;;;;;;;;;;26.20;99.90;;;;;;5133745;28;19923;-73
2022/08/14 09:47:03;;;;;;;;;;;26.30;99.90;;;;;;5133907;28;19975;-71
2022/08/14 09:49:34;;;;;;;;;;;26.40;99.90;;;;;;5115801;28;19927;-71
2022/08/14 09:52:04;;;;;;;;;;;26.50;99.90;;;;;;5133658;28;19924;-72
2022/08/14 09:54:37;;;;;;;;;;;26.50;99.90;;;;;;5133830;28;19927;-72
2022/08/14 09:57:05;;;;;;;;;;;26.60;99.90;;;;;;5119082;27;19927;-71
2022/08/14 09:59:43;;;;;;;;;;;26.70;99.90;;;;;;5137549;27;19934;-72
2022/08/14 10:02:25;;;;;;;;;;;26.80;99.90;;;;;;5137434;27;19930;-72
2022/08/14 10:05:05;;;;;;;;;;;26.80;99.90;;;;;;5137225;27;19934;-71
2022/08/14 10:07:35;;;;;;;;;;;26.90;99.90;;;;;;5153410;27;20382;-73
2022/08/14 10:10:03;;;;;;;;;;;27.00;99.90;;;;;;5137213;27;19927;-71
2022/08/14 10:12:42;;;;;;;;;;;27.10;99.90;;;;;;5137163;27;20362;-72
2022/08/14 10:15:24;;;;;;;;;;;27.10;99.90;;;;;;5137111;27;19923;-71
2022/08/14 10:18:02;;;;;;;;;;;27.20;99.90;;;;;;5137304;27;19923;-71
2022/08/14 10:20:32;;;;;;;;;;;27.20;99.90;;;;;;5137511;27;19927;-73
2022/08/14 10:23:07;;;;;;;;;;;27.20;99.90;;;;;;5137095;27;19928;-71
2022/08/14 10:25:38;;;;;;;;;;;27.30;99.90;;;;;;5152979;27;19923;-71
2022/08/14 10:28:04;;;;;;;;;;;27.40;99.90;;;;;;5136823;27;19924;-73
2022/08/14 10:30:33;;;;;;;;;;;27.40;99.90;;;;;;5137047;27;19924;-70
2022/08/14 10:32:59;;;;;;;;;;;27.40;99.90;;;;;;5136993;27;20353;-72
2022/08/14 10:35:24;;;;;;;;;;;27.40;99.90;;;;;;5136772;27;19983;-71
2022/08/14 10:37:51;;;;;;;;;;;27.50;99.90;;;;;;5136856;27;20007;-71
2022/08/14 10:40:27;;;;;;;;;;;27.60;99.90;;;;;;5118243;27;20331;-73
2022/08/14 10:42:52;;;;;;;;;;;27.60;99.90;;;;;;5136736;27;19930;-72
2022/08/14 10:45:23;;;;;;;;;;;27.60;99.90;;;;;;5136646;27;20285;-71
2022/08/14 10:47:49;;;;;;;;;;;27.70;99.90;;;;;;5136550;27;20299;-71
2022/08/14 10:50:15;;;;;;;;;;;27.70;99.90;;;;;;5136561;27;19923;-70
2022/08/14 10:52:42;;;;;;;;;;;27.70;99.90;;;;;;5136551;27;19927;-71
2022/08/14 10:55:15;;;;;;;;;;;27.80;99.90;;;;;;5136301;27;20033;-71
2022/08/14 10:57:54;;;;;;;;;;;27.80;99.90;;;;;;5136566;27;19927;-72
2022/08/14 11:00:25;;;;;;;;;;;27.80;99.90;;;;;;5118437;27;20014;-71
2022/08/14 11:02:58;;;;;;;;;;;27.80;99.90;;;;;;5136517;27;20010;-71
2022/08/14 11:05:26;;;;;;;;;;;27.80;99.90;;;;;;5101042;27;19924;-69
2022/08/14 11:07:54;;;;;;;;;;;27.80;99.90;;;;;;5135035;27;19968;-71
2022/08/14 11:10:26;;;;;;;;;;;27.80;99.90;;;;;;5136014;27;20412;-71
2022/08/14 11:12:55;;;;;;;;;;;27.80;99.90;;;;;;5136278;27;19930;-72
2022/08/14 11:15:22;;;;;;;;;;;27.80;99.90;;;;;;5136097;27;19927;-71
2022/08/14 11:17:49;;;;;;;;;;;27.80;99.90;;;;;;5136053;27;19972;-71
2022/08/14 11:20:18;;;;;;;;;;;27.80;99.90;;;;;;5135989;27;19935;-71
2022/08/14 11:22:44;;;;;;;;;;;27.90;99.90;;;;;;5136130;27;19924;-73
2022/08/14 11:25:12;;;;;;;;;;;27.90;99.90;;;;;;5135890;27;20082;-72
2022/08/14 11:27:39;;;;;;;;;;;27.90;99.80;;;;;;5135654;27;20355;-72
2022/08/14 11:30:07;;;;;;;;;;;27.90;99.90;;;;;;5135853;27;19965;-71
2022/08/14 11:32:33;;;;;;;;;;;27.90;99.90;;;;;;5151222;27;19923;-72
2022/08/14 11:35:02;;;;;;;;;;;28.00;99.90;;;;;;5135921;27;19930;-72
2022/08/14 11:37:28;;;;;;;;;;;28.00;99.90;;;;;;5136191;27;19927;-72
2022/08/14 11:39:54;;;;;;;;;;;28.00;98.80;;;;;;5135880;27;19969;-72
2022/08/14 11:42:24;;;;;;;;;;;28.10;99.10;;;;;;5117522;27;19927;-72
2022/08/14 11:44:51;;;;;;;;;;;28.10;99.20;;;;;;5135762;27;20018;-71
2022/08/14 11:47:20;;;;;;;;;;;28.10;99.40;;;;;;5135851;27;19931;-72
2022/08/14 11:49:46;;;;;;;;;;;28.10;97.10;;;;;;5163976;27;19970;-74
2022/08/14 11:52:13;;;;;;;;;;;28.10;96.30;;;;;;5177426;27;19923;-71
2022/08/14 11:54:39;;;;;;;;;;;28.00;97.20;;;;;;5177293;27;19929;-72
2022/08/14 11:57:12;;;;;;;;;;;28.00;99.40;;;;;;5175830;27;19923;-71
2022/08/14 11:59:39;;;;;;;;;;;28.00;99.50;;;;;;5177224;27;19923;-73
2022/08/14 12:02:11;;;;;;;;;;;28.00;99.20;;;;;;5177046;27;19923;-73
2022/08/14 12:04:47;;;;;;;;;;;28.00;98.20;;;;;;5177203;27;19923;-72
2022/08/14 12:07:12;;;;;;;;;;;28.10;98.70;;;;;;5177167;27;19923;-71
2022/08/14 12:09:38;;;;;;;;;;;28.10;99.00;;;;;;5176994;27;19922;-71
2022/08/14 12:12:12;;;;;;;;;;;28.20;98.60;;;;;;5158547;27;20000;-71
2022/08/14 12:14:54;;;;;;;;;;;28.20;98.80;;;;;;5176870;27;19926;-70
2022/08/14 12:17:20;;;;;;;;;;;28.30;99.90;;;;;;5177055;27;20274;-72
2022/08/14 12:19:48;;;;;;;;;;;28.30;99.30;;;;;;5176719;27;20005;-71
2022/08/14 12:22:14;;;;;;;;;;;28.30;98.30;;;;;;5176755;27;20284;-71
2022/08/14 12:24:42;;;;;;;;;;;28.30;98.40;;;;;;5176661;27;20017;-71
2022/08/14 12:27:07;;;;;;;;;;;28.50;98.50;;;;;;5176704;27;19923;-70
2022/08/14 12:29:33;;;;;;;;;;;28.30;96.60;;;;;;5176579;27;19923;-72
2022/08/14 12:32:05;;;;;;;;;;;28.40;97.50;;;;;;5176864;27;19955;-71
2022/08/14 12:34:33;;;;;;;;;;;28.40;95.90;;;;;;5176676;27;19978;-70
2022/08/14 12:37:04;;;;;;;;;;;28.40;96.00;;;;;;5176302;27;19991;-71
2022/08/14 12:39:30;;;;;;;;;;;28.40;96.20;;;;;;5176293;27;20393;-71
2022/08/14 12:42:05;;;;;;;;;;;28.40;95.60;;;;;;5175112;27;19977;-73
2022/08/14 12:44:35;;;;;;;;;;;28.40;94.10;;;;;;5176213;27;20026;-71
2022/08/14 12:47:06;;;;;;;;;;;28.30;94.80;;;;;;5176487;27;19929;-70
2022/08/14 12:49:32;;;;;;;;;;;28.30;94.70;;;;;;5158107;27;19946;-71
2022/08/14 12:51:59;;;;;;;;;;;28.20;95.70;;;;;;5176341;27;20010;-71
2022/08/14 12:54:25;;;;;;;;;;;28.30;95.00;;;;;;5176438;27;19930;-73
2022/08/14 12:57:01;;;;;;;;;;;28.30;94.00;;;;;;5175769;27;19926;-71
2022/08/14 12:59:33;;;;;;;;;;;28.30;94.40;;;;;;5176447;27;19923;-71
2022/08/14 13:02:00;;;;;;;;;;;28.30;95.20;;;;;;5176302;27;19975;-72
2022/08/14 13:04:28;;;;;;;;;;;28.30;94.00;;;;;;5176107;27;19930;-71
2022/08/14 13:06:54;;;;;;;;;;;28.30;94.70;;;;;;5176173;27;19930;-72
2022/08/14 13:09:19;;;;;;;;;;;28.30;95.30;;;;;;5157741;27;19922;-71
2022/08/14 13:11:48;;;;;;;;;;;28.30;95.00;;;;;;5175784;27;19923;-71
2022/08/14 13:14:26;;;;;;;;;;;28.30;94.40;;;;;;5157829;27;19923;-71
2022/08/14 13:16:56;;;;;;;;;;;28.30;95.00;;;;;;5176155;27;19930;-71
2022/08/14 13:19:22;;;;;;;;;;;28.30;95.20;;;;;;5176111;27;19979;-72
2022/08/14 13:21:49;;;;;;;;;;;28.40;95.90;;;;;;5157386;27;19977;-72
2022/08/14 13:24:17;;;;;;;;;;;28.50;94.60;;;;;;5175931;27;19923;-71
2022/08/14 13:26:44;;;;;;;;;;;28.50;94.30;;;;;;5176026;27;19923;-73
2022/08/14 13:29:11;;;;;;;;;;;28.50;94.20;;;;;;5176011;27;20444;-72
2022/08/14 13:31:38;;;;;;;;;;;28.50;93.00;;;;;;5178879;27;20025;-74
2022/08/14 13:34:04;;;;;;;;;;;28.50;92.70;;;;;;5149603;27;19946;-71
2022/08/14 13:36:30;;;;;;;;;;;28.60;91.90;;;;;;5119961;27;20285;-72
2022/08/14 13:38:56;;;;;;;;;;;28.70;92.00;;;;;;5137660;27;19923;-71
2022/08/14 13:41:25;;;;;;;;;;;28.70;91.70;;;;;;5155455;27;20426;-71
2022/08/14 13:43:51;;;;;;;;;;;28.70;91.30;;;;;;5156104;27;20404;-75
2022/08/14 13:46:19;;;;;;;;;;;28.70;92.40;;;;;;5155474;27;19928;-72
2022/08/14 13:48:45;;;;;;;;;;;28.70;90.90;;;;;;5119071;27;19923;-72
2022/08/14 13:51:14;;;;;;;;;;;28.80;90.60;;;;;;5145102;27;20342;-73
2022/08/14 13:53:43;;;;;;;;;;;28.70;91.10;;;;;;5157344;27;20476;-75
2022/08/14 13:56:10;;;;;;;;;;;28.80;90.90;;;;;;5124777;27;20005;-72
2022/08/14 13:58:36;;;;;;;;;;;28.80;89.60;;;;;;5157945;27;19923;-71
2022/08/14 14:01:02;;;;;;;;;;;28.80;90.40;;;;;;5158691;27;19967;-74
2022/08/14 14:03:28;;;;;;;;;;;28.80;90.70;;;;;;5121673;27;19929;-73
2022/08/14 14:05:54;;;;;;;;;;;28.80;90.10;;;;;;5154878;27;20334;-72
2022/08/14 14:08:23;;;;;;;;;;;28.90;90.00;;;;;;5158441;27;19923;-73
2022/08/14 14:10:51;;;;;;;;;;;28.90;89.40;;;;;;5158135;27;19924;-74
2022/08/14 14:13:18;;;;;;;;;;;28.90;90.80;;;;;;5158314;27;19923;-73
2022/08/14 14:15:45;;;;;;;;;;;28.90;90.60;;;;;;5158458;27;19970;-75
2022/08/14 14:18:11;;;;;;;;;;;28.90;91.00;;;;;;5158235;27;20433;-71
2022/08/14 14:20:37;;;;;;;;;;;28.80;90.90;;;;;;5158065;27;19923;-72
2022/08/14 14:23:09;;;;;;;;;;;28.90;90.40;;;;;;5158152;27;19930;-71
2022/08/14 14:25:37;;;;;;;;;;;28.90;90.60;;;;;;5174054;27;19967;-72
2022/08/14 14:28:03;;;;;;;;;;;28.90;90.10;;;;;;5158098;27;20408;-71
2022/08/14 14:30:30;;;;;;;;;;;28.90;90.30;;;;;;5158183;27;19923;-71
2022/08/14 14:32:57;;;;;;;;;;;29.00;91.00;;;;;;5158086;27;19923;-72
2022/08/14 14:35:23;;;;;;;;;;;29.00;90.30;;;;;;5157767;27;20010;-72
2022/08/14 14:37:48;;;;;;;;;;;28.90;90.90;;;;;;5157946;27;19927;-72